Time,TemperatureF,DewpointF,PressureIn,WindDirection,WindDirectionDegrees,WindSpeedMPH,WindSpeedGustMPH,Humidity,HourlyPrecipIn,Conditions,Clouds,dailyrainin,SoftwareType,DateUTC
2013-10-02 00:13:00,65.0,62.0,29.93,SE,141,0.0,0.0,89,0.00,,,0.00,,2013-10-02 05:13:00,
2013-10-02 00:22:00,65.0,62.0,29.93,SE,141,0.0,0.0,89,0.00,,,0.00,,2013-10-02 05:22:00,
2013-10-02 00:53:00,64.0,61.0,29.94,SE,141,0.0,0.0,89,0.00,,,0.00,,2013-10-02 05:53:00,
2013-10-02 01:12:00,63.0,59.0,29.94,SE,141,0.0,0.0,88,0.00,,,0.00,,2013-10-02 06:12:00,
2013-10-02 01:22:00,63.0,60.0,29.95,SE,141,0.0,0.0,89,0.00,,,0.00,,2013-10-02 06:22:00,
2013-10-02 01:42:00,62.0,59.0,29.95,SE,141,0.0,0.0,90,0.00,,,0.00,,2013-10-02 06:42:00,
2013-10-02 01:52:00,61.0,58.0,29.96,SE,141,0.0,0.0,91,0.00,,,0.00,,2013-10-02 06:52:00,
2013-10-02 02:12:00,61.0,58.0,29.97,SE,141,0.0,0.0,91,0.00,,,0.00,,2013-10-02 07:12:00,
2013-10-02 02:22:00,60.0,57.0,29.96,SE,141,0.0,0.0,91,0.00,,,0.00,,2013-10-02 07:22:00,
2013-10-02 02:42:00,59.0,56.0,29.97,SE,141,0.0,0.0,91,0.00,,,0.00,,2013-10-02 07:42:00,
2013-10-02 02:52:00,59.0,57.0,29.97,SE,141,0.0,0.0,92,0.00,,,0.00,,2013-10-02 07:52:00,
2013-10-02 03:11:00,58.0,56.0,29.97,SE,141,0.0,0.0,92,0.00,,,0.00,,2013-10-02 08:11:00,
2013-10-02 03:22:00,58.0,56.0,29.97,SE,141,0.0,0.0,93,0.00,,,0.00,,2013-10-02 08:22:00,
2013-10-02 03:52:00,56.0,54.0,29.98,SE,141,0.0,0.0,92,0.00,,,0.00,,2013-10-02 08:52:00,
2013-10-02 04:11:00,56.0,54.0,29.99,SE,141,0.0,0.0,94,0.00,,,0.00,,2013-10-02 09:11:00,
2013-10-02 04:21:00,56.0,54.0,29.99,SE,141,0.0,0.0,94,0.00,,,0.00,,2013-10-02 09:21:00,
2013-10-02 04:54:00,55.0,54.0,30.01,SE,141,0.0,0.0,95,0.00,,,0.00,,2013-10-02 09:54:00,
2013-10-02 05:12:00,55.0,54.0,30.01,SE,141,0.0,0.0,95,0.00,,,0.00,,2013-10-02 10:12:00,
2013-10-02 05:23:00,55.0,54.0,30.01,SE,141,0.0,0.0,95,0.00,,,0.00,,2013-10-02 10:23:00,
2013-10-02 05:52:00,54.0,52.0,30.02,SE,141,0.0,0.0,94,0.00,,,0.00,,2013-10-02 10:52:00,
2013-10-02 06:22:00,52.0,50.0,30.03,SE,141,0.0,0.0,94,0.00,,,0.00,,2013-10-02 11:22:00,
2013-10-02 06:52:00,52.0,51.0,30.03,SE,141,0.0,0.0,95,0.00,,,0.00,,2013-10-02 11:52:00,
2013-10-02 07:12:00,51.0,50.0,30.04,SE,141,0.0,0.0,95,0.00,,,0.00,,2013-10-02 12:12:00,
2013-10-02 07:22:00,51.0,50.0,30.04,SE,141,0.0,0.0,95,0.00,,,0.00,,2013-10-02 12:22:00,
2013-10-02 07:52:00,50.0,49.0,30.05,SE,141,0.0,0.0,95,0.00,,,0.00,,2013-10-02 12:52:00,
2013-10-02 08:11:00,51.0,50.0,30.05,SE,141,0.0,0.0,96,0.00,,,0.00,,2013-10-02 13:11:00,
2013-10-02 08:22:00,51.0,50.0,30.06,SE,141,0.0,0.0,97,0.00,,,0.00,,2013-10-02 13:22:00,
2013-10-02 08:52:00,53.0,52.0,30.06,SE,141,0.0,0.0,98,0.00,,,0.00,,2013-10-02 13:52:00,
2013-10-02 09:11:00,55.0,54.0,30.07,SE,141,0.0,0.0,98,0.00,,,0.00,,2013-10-02 14:11:00,
2013-10-02 09:21:00,57.0,56.0,30.07,SE,141,0.0,0.0,98,0.00,,,0.00,,2013-10-02 14:21:00,
2013-10-02 09:42:00,60.0,59.0,30.07,NE,41,0.0,3.0,95,0.00,,,0.00,,2013-10-02 14:42:00,
2013-10-02 09:52:00,64.0,56.0,30.07,NE,41,0.0,1.0,76,0.00,,,0.00,,2013-10-02 14:52:00,
2013-10-02 10:22:00,71.0,49.0,30.07,East,90,0.0,1.0,45,0.00,,,0.00,,2013-10-02 15:22:00,
2013-10-02 11:23:00,77.0,45.0,30.07,East,81,0.0,2.0,32,0.00,,,0.00,,2013-10-02 16:23:00,
2013-10-02 12:23:00,80.0,41.0,30.06,SE,125,1.0,5.0,25,0.00,,,0.00,,2013-10-02 17:23:00,
2013-10-02 12:42:00,80.0,43.0,30.05,SE,134,0.0,6.0,27,0.00,,,0.00,,2013-10-02 17:42:00,
2013-10-02 12:52:00,80.0,43.0,30.05,SSE,151,0.0,6.0,27,0.00,,,0.00,,2013-10-02 17:52:00,
2013-10-02 13:12:00,81.0,44.0,30.04,ENE,78,0.0,2.0,27,0.00,,,0.00,,2013-10-02 18:12:00,
2013-10-02 13:21:00,83.0,47.0,30.04,ESE,106,0.0,1.0,28,0.00,,,0.00,,2013-10-02 18:21:00,
2013-10-02 13:52:00,81.0,46.0,30.02,South,191,0.0,8.0,29,0.00,,,0.00,,2013-10-02 18:52:00,
2013-10-02 14:11:00,83.0,46.0,30.01,SW,215,0.0,1.0,27,0.00,,,0.00,,2013-10-02 19:11:00,
2013-10-02 14:22:00,84.0,45.0,30.01,WSW,237,0.0,3.0,26,0.00,,,0.00,,2013-10-02 19:22:00,
2013-10-02 14:52:00,85.0,48.0,30.00,SSW,208,0.0,6.0,28,0.00,,,0.00,,2013-10-02 19:52:00,
2013-10-02 15:22:00,85.0,49.0,29.99,South,174,1.0,5.0,29,0.00,,,0.00,,2013-10-02 20:22:00,
2013-10-02 16:11:00,82.0,49.0,29.97,SE,138,0.0,3.0,32,0.00,,,0.00,,2013-10-02 21:11:00,
2013-10-02 16:22:00,82.0,49.0,29.97,SSE,154,0.0,7.0,32,0.00,,,0.00,,2013-10-02 21:22:00,
2013-10-02 16:44:00,82.0,50.0,29.96,SE,137,1.0,5.0,33,0.00,,,0.00,,2013-10-02 21:44:00,
2013-10-02 16:54:00,81.0,50.0,29.96,South,173,1.0,6.0,34,0.00,,,0.00,,2013-10-02 21:54:00,
2013-10-02 17:13:00,79.0,49.0,29.96,South,175,0.0,6.0,35,0.00,,,0.00,,2013-10-02 22:13:00,
2013-10-02 17:24:00,79.0,49.0,29.96,SE,144,0.0,5.0,35,0.00,,,0.00,,2013-10-02 22:24:00,
2013-10-02 17:44:00,79.0,50.0,29.96,East,98,0.0,1.0,37,0.00,,,0.00,,2013-10-02 22:44:00,
2013-10-02 17:53:00,78.0,51.0,29.96,SSE,148,0.0,3.0,39,0.00,,,0.00,,2013-10-02 22:53:00,
2013-10-02 18:12:00,77.0,51.0,29.95,SSE,158,0.0,2.0,41,0.00,,,0.00,,2013-10-02 23:12:00,
2013-10-02 18:22:00,77.0,51.0,29.95,SSE,158,0.0,2.0,41,0.00,,,0.00,,2013-10-02 23:22:00,
2013-10-02 18:52:00,75.0,52.0,29.95,ENE,61,0.0,1.0,45,0.00,,,0.00,,2013-10-02 23:52:00,
2013-10-02 19:12:00,74.0,52.0,29.95,ENE,65,0.0,1.0,46,0.00,,,0.00,,2013-10-03 00:12:00,
2013-10-02 19:22:00,74.0,52.0,29.95,ENE,65,0.0,1.0,46,0.00,,,0.00,,2013-10-03 00:22:00,
2013-10-02 19:42:00,70.0,52.0,29.96,NE,40,0.0,1.0,52,0.00,,,0.00,,2013-10-03 00:42:00,
2013-10-02 19:52:00,70.0,52.0,29.96,ENE,60,0.0,2.0,53,0.00,,,0.00,,2013-10-03 00:52:00,
2013-10-02 20:11:00,68.0,51.0,29.96,NNE,27,0.0,2.0,55,0.00,,,0.00,,2013-10-03 01:11:00,
2013-10-02 20:22:00,68.0,52.0,29.96,ENE,58,0.0,2.0,56,0.00,,,0.00,,2013-10-03 01:22:00,
2013-10-02 20:42:00,67.0,51.0,29.96,ESE,103,0.0,2.0,56,0.00,,,0.00,,2013-10-03 01:42:00,
2013-10-02 20:52:00,66.0,49.0,29.96,ENE,78,0.0,3.0,55,0.00,,,0.00,,2013-10-03 01:52:00,
2013-10-02 21:11:00,65.0,48.0,29.95,West,260,0.0,2.0,54,0.00,,,0.00,,2013-10-03 02:11:00,
2013-10-02 21:22:00,65.0,47.0,29.95,ENE,65,0.0,2.0,52,0.00,,,0.00,,2013-10-03 02:22:00,
2013-10-02 22:11:00,63.0,44.0,29.96,NE,48,0.0,2.0,50,0.00,,,0.00,,2013-10-03 03:11:00,
2013-10-02 22:22:00,63.0,44.0,29.96,NNE,24,0.0,7.0,49,0.00,,,0.00,,2013-10-03 03:22:00,
2013-10-02 22:44:00,63.0,44.0,29.96,East,86,0.0,3.0,49,0.00,,,0.00,,2013-10-03 03:44:00,
2013-10-02 22:54:00,63.0,44.0,29.96,ENE,65,0.0,2.0,50,0.00,,,0.00,,2013-10-03 03:54:00,
2013-10-02 23:13:00,63.0,45.0,29.96,ENE,77,0.0,1.0,52,0.00,,,0.00,,2013-10-03 04:13:00,
2013-10-02 23:24:00,63.0,45.0,29.96,ENE,77,0.0,1.0,52,0.00,,,0.00,,2013-10-03 04:24:00,
2013-10-02 23:44:00,62.0,47.0,29.96,SE,131,0.0,1.0,59,0.00,,,0.00,,2013-10-03 04:44:00,
2013-10-02 23:53:00,62.0,47.0,29.96,SE,131,0.0,1.0,59,0.00,,,0.00,,2013-10-03 04:53:00,